sensor_id;sensor_type;location;lat;lon;timestamp;P1;durP1;ratioP1;P2;durP2;ratioP2
20144;SDS011;10233;50.814;6.590;2022-10-16T00:00:34;2.25;;;1.10;;
20144;SDS011;10233;50.814;6.590;2022-10-16T00:01:36;2.50;;;1.10;;
20144;SDS011;10233;50.814;6.590;2022-10-16T00:02:37;1.58;;;1.10;;
20144;SDS011;10233;50.814;6.590;2022-10-16T00:03:38;1.20;;;1.10;;
20144;SDS011;10233;50.814;6.590;2022-10-16T00:04:40;4.40;;;1.35;;
20144;SDS011;10233;50.814;6.590;2022-10-16T00:05:42;2.15;;;1.10;;
20144;SDS011;10233;50.814;6.590;2022-10-16T00:06:44;1.67;;;0.98;;
20144;SDS011;10233;50.814;6.590;2022-10-16T00:07:44;1.43;;;1.10;;
20144;SDS011;10233;50.814;6.590;2022-10-16T00:08:45;1.55;;;1.20;;
20144;SDS011;10233;50.814;6.590;2022-10-16T00:09:48;1.97;;;1.07;;
20144;SDS011;10233;50.814;6.590;2022-10-16T00:10:50;1.73;;;1.25;;
20144;SDS011;10233;50.814;6.590;2022-10-16T00:11:50;1.65;;;1.10;;
20144;SDS011;10233;50.814;6.590;2022-10-16T00:12:51;3.10;;;1.17;;
20144;SDS011;10233;50.814;6.590;2022-10-16T00:13:54;1.10;;;1.00;;
20144;SDS011;10233;50.814;6.590;2022-10-16T00:14:57;0.80;;;0.80;;
20144;SDS011;10233;50.814;6.590;2022-10-16T00:15:58;1.17;;;1.07;;
20144;SDS011;10233;50.814;6.590;2022-10-16T00:16:59;1.27;;;1.05;;
20144;SDS011;10233;50.814;6.590;2022-10-16T00:17:59;1.40;;;1.03;;
20144;SDS011;10233;50.814;6.590;2022-10-16T00:19:00;1.73;;;1.00;;
20144;SDS011;10233;50.814;6.590;2022-10-16T00:20:00;1.87;;;1.17;;
20144;SDS011;10233;50.814;6.590;2022-10-16T00:21:05;2.38;;;1.02;;
20144;SDS011;10233;50.814;6.590;2022-10-16T00:22:17;1.10;;;1.00;;
20144;SDS011;10233;50.814;6.590;2022-10-16T00:23:18;3.03;;;0.98;;
20144;SDS011;10233;50.814;6.590;2022-10-16T00:24:19;2.20;;;1.10;;
20144;SDS011;10233;50.814;6.590;2022-10-16T00:25:19;1.50;;;1.00;;
20144;SDS011;10233;50.814;6.590;2022-10-16T00:26:20;1.30;;;1.20;;
20144;SDS011;10233;50.814;6.590;2022-10-16T00:27:21;1.58;;;1.17;;
20144;SDS011;10233;50.814;6.590;2022-10-16T00:28:21;1.40;;;1.20;;
20144;SDS011;10233;50.814;6.590;2022-10-16T00:29:22;2.03;;;1.10;;
20144;SDS011;10233;50.814;6.590;2022-10-16T00:30:22;1.57;;;1.07;;
20144;SDS011;10233;50.814;6.590;2022-10-16T00:31:23;1.38;;;1.23;;
20144;SDS011;10233;50.814;6.590;2022-10-16T00:32:24;1.20;;;1.10;;
20144;SDS011;10233;50.814;6.590;2022-10-16T00:33:25;2.50;;;1.52;;
20144;SDS011;10233;50.814;6.590;2022-10-16T00:34:25;2.40;;;1.20;;
20144;SDS011;10233;50.814;6.590;2022-10-16T00:35:26;1.50;;;1.10;;
20144;SDS011;10233;50.814;6.590;2022-10-16T00:36:26;1.50;;;1.25;;
20144;SDS011;10233;50.814;6.590;2022-10-16T00:37:27;1.33;;;1.00;;
20144;SDS011;10233;50.814;6.590;2022-10-16T00:38:27;1.23;;;0.95;;
20144;SDS011;10233;50.814;6.590;2022-10-16T00:39:28;1.20;;;1.00;;
20144;SDS011;10233;50.814;6.590;2022-10-16T00:40:28;1.40;;;1.17;;
20144;SDS011;10233;50.814;6.590;2022-10-16T00:41:29;2.30;;;1.00;;
20144;SDS011;10233;50.814;6.590;2022-10-16T00:42:31;1.55;;;1.30;;
20144;SDS011;10233;50.814;6.590;2022-10-16T00:43:39;1.25;;;1.00;;
20144;SDS011;10233;50.814;6.590;2022-10-16T00:45:52;2.90;;;1.05;;
20144;SDS011;10233;50.814;6.590;2022-10-16T00:46:53;1.70;;;1.20;;
20144;SDS011;10233;50.814;6.590;2022-10-16T00:47:54;2.25;;;1.10;;
20144;SDS011;10233;50.814;6.590;2022-10-16T00:48:57;1.65;;;1.00;;
20144;SDS011;10233;50.814;6.590;2022-10-16T00:50:45;1.10;;;1.00;;
20144;SDS011;10233;50.814;6.590;2022-10-16T00:51:35;1.35;;;1.10;;
20144;SDS011;10233;50.814;6.590;2022-10-16T00:52:41;1.80;;;0.90;;
20144;SDS011;10233;50.814;6.590;2022-10-16T00:53:46;1.92;;;0.90;;
20144;SDS011;10233;50.814;6.590;2022-10-16T00:54:46;1.20;;;0.80;;
20144;SDS011;10233;50.814;6.590;2022-10-16T00:55:50;1.60;;;1.10;;
20144;SDS011;10233;50.814;6.590;2022-10-16T00:57:09;1.02;;;0.93;;
20144;SDS011;10233;50.814;6.590;2022-10-16T00:58:10;0.98;;;0.75;;
20144;SDS011;10233;50.814;6.590;2022-10-16T00:59:14;1.33;;;0.90;;
20144;SDS011;10233;50.814;6.590;2022-10-16T01:00:19;1.15;;;1.00;;
20144;SDS011;10233;50.814;6.590;2022-10-16T01:01:22;0.80;;;0.80;;
20144;SDS011;10233;50.814;6.590;2022-10-16T01:02:23;2.63;;;0.90;;
20144;SDS011;10233;50.814;6.590;2022-10-16T01:03:25;1.60;;;1.00;;
20144;SDS011;10233;50.814;6.590;2022-10-16T01:04:37;1.30;;;0.80;;
20144;SDS011;10233;50.814;6.590;2022-10-16T01:05:45;1.40;;;0.93;;
20144;SDS011;10233;50.814;6.590;2022-10-16T01:08:13;3.13;;;1.13;;
20144;SDS011;10233;50.814;6.590;2022-10-16T01:09:35;1.13;;;0.80;;
20144;SDS011;10233;50.814;6.590;2022-10-16T01:12:20;3.43;;;0.90;;
20144;SDS011;10233;50.814;6.590;2022-10-16T01:13:35;1.80;;;0.90;;
20144;SDS011;10233;50.814;6.590;2022-10-16T01:14:54;1.00;;;0.60;;
20144;SDS011;10233;50.814;6.590;2022-10-16T01:16:08;1.20;;;0.70;;
20144;SDS011;10233;50.814;6.590;2022-10-16T01:17:48;1.30;;;0.90;;
20144;SDS011;10233;50.814;6.590;2022-10-16T01:19:19;0.90;;;0.80;;
20144;SDS011;10233;50.814;6.590;2022-10-16T01:22:14;0.93;;;0.75;;
20144;SDS011;10233;50.814;6.590;2022-10-16T01:23:18;1.80;;;0.80;;
20144;SDS011;10233;50.814;6.590;2022-10-16T01:24:40;1.85;;;0.80;;
20144;SDS011;10233;50.814;6.590;2022-10-16T01:27:29;1.42;;;0.95;;
20144;SDS011;10233;50.814;6.590;2022-10-16T01:28:55;2.00;;;0.80;;
20144;SDS011;10233;50.814;6.590;2022-10-16T01:30:04;1.70;;;1.00;;
20144;SDS011;10233;50.814;6.590;2022-10-16T01:31:15;4.70;;;1.00;;
20144;SDS011;10233;50.814;6.590;2022-10-16T01:33:39;1.25;;;1.08;;
20144;SDS011;10233;50.814;6.590;2022-10-16T01:34:53;0.85;;;0.82;;
20144;SDS011;10233;50.814;6.590;2022-10-16T01:36:00;1.00;;;0.88;;
20144;SDS011;10233;50.814;6.590;2022-10-16T01:37:12;0.75;;;0.75;;
20144;SDS011;10233;50.814;6.590;2022-10-16T01:38:17;1.00;;;0.90;;
20144;SDS011;10233;50.814;6.590;2022-10-16T01:39:24;0.82;;;0.82;;
20144;SDS011;10233;50.814;6.590;2022-10-16T01:40:29;1.57;;;0.90;;
20144;SDS011;10233;50.814;6.590;2022-10-16T01:41:44;0.70;;;0.70;;
20144;SDS011;10233;50.814;6.590;2022-10-16T01:43:11;3.28;;;0.82;;
20144;SDS011;10233;50.814;6.590;2022-10-16T01:44:19;0.93;;;0.77;;
20144;SDS011;10233;50.814;6.590;2022-10-16T01:45:24;0.50;;;0.50;;
20144;SDS011;10233;50.814;6.590;2022-10-16T01:46:24;1.00;;;0.70;;
20144;SDS011;10233;50.814;6.590;2022-10-16T01:47:26;0.93;;;0.60;;
20144;SDS011;10233;50.814;6.590;2022-10-16T01:48:27;1.15;;;0.88;;
20144;SDS011;10233;50.814;6.590;2022-10-16T01:49:30;1.20;;;0.80;;
20144;SDS011;10233;50.814;6.590;2022-10-16T01:50:35;0.63;;;0.63;;
20144;SDS011;10233;50.814;6.590;2022-10-16T01:51:39;2.70;;;0.77;;
20144;SDS011;10233;50.814;6.590;2022-10-16T01:52:45;1.90;;;0.50;;
20144;SDS011;10233;50.814;6.590;2022-10-16T01:53:49;1.00;;;0.70;;
20144;SDS011;10233;50.814;6.590;2022-10-16T01:54:54;0.93;;;0.70;;
20144;SDS011;10233;50.814;6.590;2022-10-16T01:55:56;1.08;;;0.60;;
20144;SDS011;10233;50.814;6.590;2022-10-16T01:56:59;0.80;;;0.70;;
20144;SDS011;10233;50.814;6.590;2022-10-16T01:58:00;0.70;;;0.52;;
20144;SDS011;10233;50.814;6.590;2022-10-16T01:59:09;1.10;;;0.70;;
20144;SDS011;10233;50.814;6.590;2022-10-16T02:00:12;1.50;;;0.80;;
20144;SDS011;10233;50.814;6.590;2022-10-16T02:01:16;0.80;;;0.60;;
20144;SDS011;10233;50.814;6.590;2022-10-16T02:02:20;0.60;;;0.50;;
20144;SDS011;10233;50.814;6.590;2022-10-16T02:03:22;0.60;;;0.60;;
20144;SDS011;10233;50.814;6.590;2022-10-16T02:04:24;1.23;;;0.70;;
20144;SDS011;10233;50.814;6.590;2022-10-16T02:05:34;2.13;;;0.90;;
20144;SDS011;10233;50.814;6.590;2022-10-16T02:06:40;0.73;;;0.60;;
20144;SDS011;10233;50.814;6.590;2022-10-16T02:07:41;0.90;;;0.70;;
20144;SDS011;10233;50.814;6.590;2022-10-16T02:08:42;1.00;;;0.63;;
20144;SDS011;10233;50.814;6.590;2022-10-16T02:09:44;1.10;;;0.70;;
20144;SDS011;10233;50.814;6.590;2022-10-16T02:10:45;0.52;;;0.50;;
20144;SDS011;10233;50.814;6.590;2022-10-16T02:11:45;1.00;;;0.60;;
20144;SDS011;10233;50.814;6.590;2022-10-16T02:12:48;1.02;;;0.57;;
20144;SDS011;10233;50.814;6.590;2022-10-16T02:14:04;0.90;;;0.60;;
20144;SDS011;10233;50.814;6.590;2022-10-16T02:15:06;0.55;;;0.52;;
20144;SDS011;10233;50.814;6.590;2022-10-16T02:16:07;1.10;;;0.60;;
20144;SDS011;10233;50.814;6.590;2022-10-16T02:17:11;1.67;;;0.90;;
20144;SDS011;10233;50.814;6.590;2022-10-16T02:18:13;2.92;;;0.73;;
20144;SDS011;10233;50.814;6.590;2022-10-16T02:19:15;0.60;;;0.52;;
20144;SDS011;10233;50.814;6.590;2022-10-16T02:20:23;1.23;;;0.60;;
20144;SDS011;10233;50.814;6.590;2022-10-16T02:21:32;1.30;;;0.70;;
20144;SDS011;10233;50.814;6.590;2022-10-16T02:22:42;0.70;;;0.50;;
20144;SDS011;10233;50.814;6.590;2022-10-16T02:23:55;1.75;;;0.65;;
20144;SDS011;10233;50.814;6.590;2022-10-16T02:26:07;1.00;;;0.60;;
20144;SDS011;10233;50.814;6.590;2022-10-16T02:28:45;0.77;;;0.52;;
20144;SDS011;10233;50.814;6.590;2022-10-16T02:29:51;0.90;;;0.57;;
20144;SDS011;10233;50.814;6.590;2022-10-16T02:31:00;0.60;;;0.50;;
20144;SDS011;10233;50.814;6.590;2022-10-16T02:32:04;4.50;;;0.63;;
20144;SDS011;10233;50.814;6.590;2022-10-16T02:33:08;0.80;;;0.60;;
20144;SDS011;10233;50.814;6.590;2022-10-16T02:34:11;1.65;;;0.60;;
20144;SDS011;10233;50.814;6.590;2022-10-16T02:35:15;1.05;;;0.55;;
20144;SDS011;10233;50.814;6.590;2022-10-16T02:36:18;1.80;;;0.50;;
20144;SDS011;10233;50.814;6.590;2022-10-16T02:37:19;0.60;;;0.40;;
20144;SDS011;10233;50.814;6.590;2022-10-16T02:38:20;3.60;;;0.60;;
20144;SDS011;10233;50.814;6.590;2022-10-16T02:39:22;0.80;;;0.40;;
20144;SDS011;10233;50.814;6.590;2022-10-16T02:40:23;1.35;;;0.50;;
20144;SDS011;10233;50.814;6.590;2022-10-16T02:41:25;0.90;;;0.60;;
20144;SDS011;10233;50.814;6.590;2022-10-16T02:42:33;0.60;;;0.50;;
20144;SDS011;10233;50.814;6.590;2022-10-16T02:43:34;0.50;;;0.40;;
20144;SDS011;10233;50.814;6.590;2022-10-16T02:44:35;1.20;;;0.57;;
20144;SDS011;10233;50.814;6.590;2022-10-16T02:45:35;0.47;;;0.47;;
20144;SDS011;10233;50.814;6.590;2022-10-16T02:46:36;2.40;;;0.40;;
20144;SDS011;10233;50.814;6.590;2022-10-16T02:47:36;0.60;;;0.50;;
20144;SDS011;10233;50.814;6.590;2022-10-16T02:48:37;0.38;;;0.38;;
20144;SDS011;10233;50.814;6.590;2022-10-16T02:49:39;0.55;;;0.50;;
20144;SDS011;10233;50.814;6.590;2022-10-16T02:50:39;0.60;;;0.50;;
20144;SDS011;10233;50.814;6.590;2022-10-16T02:51:40;0.90;;;0.50;;
20144;SDS011;10233;50.814;6.590;2022-10-16T02:52:40;2.22;;;0.60;;
20144;SDS011;10233;50.814;6.590;2022-10-16T02:53:41;0.63;;;0.50;;
20144;SDS011;10233;50.814;6.590;2022-10-16T02:54:41;0.52;;;0.52;;
20144;SDS011;10233;50.814;6.590;2022-10-16T02:55:41;0.70;;;0.53;;
20144;SDS011;10233;50.814;6.590;2022-10-16T02:56:42;1.33;;;0.60;;
20144;SDS011;10233;50.814;6.590;2022-10-16T02:57:42;0.50;;;0.50;;
20144;SDS011;10233;50.814;6.590;2022-10-16T02:58:43;0.40;;;0.40;;
20144;SDS011;10233;50.814;6.590;2022-10-16T02:59:44;0.80;;;0.50;;
20144;SDS011;10233;50.814;6.590;2022-10-16T03:00:45;1.10;;;0.60;;
20144;SDS011;10233;50.814;6.590;2022-10-16T03:01:45;0.88;;;0.63;;
20144;SDS011;10233;50.814;6.590;2022-10-16T03:02:49;1.33;;;0.50;;
20144;SDS011;10233;50.814;6.590;2022-10-16T03:03:50;0.57;;;0.50;;
20144;SDS011;10233;50.814;6.590;2022-10-16T03:04:50;0.90;;;0.50;;
20144;SDS011;10233;50.814;6.590;2022-10-16T03:05:51;2.13;;;0.45;;
20144;SDS011;10233;50.814;6.590;2022-10-16T03:06:51;1.17;;;0.60;;
20144;SDS011;10233;50.814;6.590;2022-10-16T03:07:51;0.57;;;0.43;;
20144;SDS011;10233;50.814;6.590;2022-10-16T03:08:52;0.68;;;0.55;;
20144;SDS011;10233;50.814;6.590;2022-10-16T03:09:53;1.37;;;0.50;;
20144;SDS011;10233;50.814;6.590;2022-10-16T03:10:56;0.73;;;0.40;;
20144;SDS011;10233;50.814;6.590;2022-10-16T03:11:56;0.50;;;0.50;;
20144;SDS011;10233;50.814;6.590;2022-10-16T03:12:57;1.40;;;0.50;;
20144;SDS011;10233;50.814;6.590;2022-10-16T03:13:57;0.80;;;0.50;;
20144;SDS011;10233;50.814;6.590;2022-10-16T03:14:58;1.85;;;0.50;;
20144;SDS011;10233;50.814;6.590;2022-10-16T03:15:58;0.73;;;0.60;;
20144;SDS011;10233;50.814;6.590;2022-10-16T03:16:59;1.90;;;0.50;;
20144;SDS011;10233;50.814;6.590;2022-10-16T03:18:00;0.75;;;0.57;;
20144;SDS011;10233;50.814;6.590;2022-10-16T03:19:00;0.40;;;0.30;;
20144;SDS011;10233;50.814;6.590;2022-10-16T03:20:01;1.05;;;0.40;;
20144;SDS011;10233;50.814;6.590;2022-10-16T03:21:02;0.40;;;0.40;;
20144;SDS011;10233;50.814;6.590;2022-10-16T03:22:02;1.30;;;0.60;;
20144;SDS011;10233;50.814;6.590;2022-10-16T03:23:03;0.80;;;0.50;;
20144;SDS011;10233;50.814;6.590;2022-10-16T03:24:03;0.90;;;0.53;;
20144;SDS011;10233;50.814;6.590;2022-10-16T03:25:04;1.73;;;1.00;;
20144;SDS011;10233;50.814;6.590;2022-10-16T03:26:05;1.38;;;0.50;;
20144;SDS011;10233;50.814;6.590;2022-10-16T03:27:05;0.60;;;0.50;;
20144;SDS011;10233;50.814;6.590;2022-10-16T03:28:06;0.55;;;0.52;;
20144;SDS011;10233;50.814;6.590;2022-10-16T03:29:06;2.97;;;0.60;;
20144;SDS011;10233;50.814;6.590;2022-10-16T03:30:07;3.03;;;0.70;;
20144;SDS011;10233;50.814;6.590;2022-10-16T03:31:09;0.68;;;0.43;;
20144;SDS011;10233;50.814;6.590;2022-10-16T03:32:09;0.50;;;0.40;;
20144;SDS011;10233;50.814;6.590;2022-10-16T03:33:10;1.00;;;0.60;;
20144;SDS011;10233;50.814;6.590;2022-10-16T03:34:10;0.40;;;0.40;;
20144;SDS011;10233;50.814;6.590;2022-10-16T03:35:11;1.98;;;0.60;;
20144;SDS011;10233;50.814;6.590;2022-10-16T03:36:11;0.70;;;0.50;;
20144;SDS011;10233;50.814;6.590;2022-10-16T03:37:12;0.50;;;0.50;;
20144;SDS011;10233;50.814;6.590;2022-10-16T03:38:12;0.75;;;0.75;;
20144;SDS011;10233;50.814;6.590;2022-10-16T03:39:13;1.50;;;0.53;;
20144;SDS011;10233;50.814;6.590;2022-10-16T03:40:13;2.80;;;1.00;;
20144;SDS011;10233;50.814;6.590;2022-10-16T03:41:15;0.70;;;0.45;;
20144;SDS011;10233;50.814;6.590;2022-10-16T03:42:15;0.85;;;0.40;;
20144;SDS011;10233;50.814;6.590;2022-10-16T03:43:16;2.00;;;0.57;;
20144;SDS011;10233;50.814;6.590;2022-10-16T03:44:16;0.75;;;0.50;;
20144;SDS011;10233;50.814;6.590;2022-10-16T03:45:17;3.00;;;0.60;;
20144;SDS011;10233;50.814;6.590;2022-10-16T03:46:17;2.20;;;0.60;;
20144;SDS011;10233;50.814;6.590;2022-10-16T03:47:18;0.93;;;0.53;;
20144;SDS011;10233;50.814;6.590;2022-10-16T03:48:21;1.27;;;0.60;;
20144;SDS011;10233;50.814;6.590;2022-10-16T03:49:22;0.70;;;0.60;;
20144;SDS011;10233;50.814;6.590;2022-10-16T03:50:22;0.87;;;0.50;;
20144;SDS011;10233;50.814;6.590;2022-10-16T03:51:23;0.52;;;0.50;;
20144;SDS011;10233;50.814;6.590;2022-10-16T03:52:23;1.50;;;0.60;;
20144;SDS011;10233;50.814;6.590;2022-10-16T03:53:24;0.70;;;0.65;;
20144;SDS011;10233;50.814;6.590;2022-10-16T03:54:24;0.77;;;0.53;;
20144;SDS011;10233;50.814;6.590;2022-10-16T03:55:25;0.43;;;0.43;;
20144;SDS011;10233;50.814;6.590;2022-10-16T03:56:25;0.60;;;0.50;;
20144;SDS011;10233;50.814;6.590;2022-10-16T03:57:26;0.60;;;0.50;;
20144;SDS011;10233;50.814;6.590;2022-10-16T03:58:26;1.77;;;0.60;;
20144;SDS011;10233;50.814;6.590;2022-10-16T03:59:27;0.67;;;0.60;;
20144;SDS011;10233;50.814;6.590;2022-10-16T04:00:27;0.70;;;0.52;;
20144;SDS011;10233;50.814;6.590;2022-10-16T04:01:28;0.93;;;0.60;;
20144;SDS011;10233;50.814;6.590;2022-10-16T04:02:28;0.67;;;0.50;;
20144;SDS011;10233;50.814;6.590;2022-10-16T04:03:28;2.00;;;0.55;;
20144;SDS011;10233;50.814;6.590;2022-10-16T04:04:29;0.60;;;0.43;;
20144;SDS011;10233;50.814;6.590;2022-10-16T04:05:29;0.90;;;0.60;;
20144;SDS011;10233;50.814;6.590;2022-10-16T04:06:30;1.17;;;0.73;;
20144;SDS011;10233;50.814;6.590;2022-10-16T04:07:30;0.83;;;0.60;;
20144;SDS011;10233;50.814;6.590;2022-10-16T04:08:31;0.85;;;0.60;;
20144;SDS011;10233;50.814;6.590;2022-10-16T04:09:34;0.95;;;0.55;;
20144;SDS011;10233;50.814;6.590;2022-10-16T04:10:34;1.37;;;0.73;;
20144;SDS011;10233;50.814;6.590;2022-10-16T04:11:36;1.60;;;0.60;;
20144;SDS011;10233;50.814;6.590;2022-10-16T04:12:37;0.70;;;0.60;;
20144;SDS011;10233;50.814;6.590;2022-10-16T04:13:37;0.70;;;0.60;;
20144;SDS011;10233;50.814;6.590;2022-10-16T04:14:38;0.40;;;0.40;;
20144;SDS011;10233;50.814;6.590;2022-10-16T04:15:38;1.30;;;0.60;;
20144;SDS011;10233;50.814;6.590;2022-10-16T04:16:39;1.00;;;0.70;;
20144;SDS011;10233;50.814;6.590;2022-10-16T04:17:39;1.60;;;0.57;;
20144;SDS011;10233;50.814;6.590;2022-10-16T04:18:40;1.20;;;0.70;;
20144;SDS011;10233;50.814;6.590;2022-10-16T04:19:41;0.87;;;0.77;;
20144;SDS011;10233;50.814;6.590;2022-10-16T04:20:41;0.80;;;0.60;;
20144;SDS011;10233;50.814;6.590;2022-10-16T04:21:42;1.60;;;0.60;;
20144;SDS011;10233;50.814;6.590;2022-10-16T04:22:42;0.60;;;0.60;;
20144;SDS011;10233;50.814;6.590;2022-10-16T04:23:43;0.70;;;0.60;;
20144;SDS011;10233;50.814;6.590;2022-10-16T04:24:43;0.70;;;0.60;;
20144;SDS011;10233;50.814;6.590;2022-10-16T04:25:43;0.90;;;0.67;;
20144;SDS011;10233;50.814;6.590;2022-10-16T04:26:44;4.10;;;0.70;;
20144;SDS011;10233;50.814;6.590;2022-10-16T04:27:44;0.77;;;0.60;;
20144;SDS011;10233;50.814;6.590;2022-10-16T04:28:45;1.10;;;0.70;;
20144;SDS011;10233;50.814;6.590;2022-10-16T04:29:45;2.28;;;0.75;;
20144;SDS011;10233;50.814;6.590;2022-10-16T04:30:46;0.70;;;0.70;;
20144;SDS011;10233;50.814;6.590;2022-10-16T04:31:46;3.22;;;0.70;;
20144;SDS011;10233;50.814;6.590;2022-10-16T04:32:47;2.83;;;0.53;;
20144;SDS011;10233;50.814;6.590;2022-10-16T04:33:51;0.60;;;0.55;;
20144;SDS011;10233;50.814;6.590;2022-10-16T04:34:52;1.17;;;0.70;;
20144;SDS011;10233;50.814;6.590;2022-10-16T04:35:57;0.95;;;0.70;;
20144;SDS011;10233;50.814;6.590;2022-10-16T04:36:58;0.60;;;0.57;;
20144;SDS011;10233;50.814;6.590;2022-10-16T04:37:58;1.90;;;0.60;;
20144;SDS011;10233;50.814;6.590;2022-10-16T04:38:59;1.77;;;0.80;;
20144;SDS011;10233;50.814;6.590;2022-10-16T04:39:59;1.10;;;0.60;;
20144;SDS011;10233;50.814;6.590;2022-10-16T04:40:59;0.77;;;0.70;;
20144;SDS011;10233;50.814;6.590;2022-10-16T04:42:00;2.00;;;0.60;;
20144;SDS011;10233;50.814;6.590;2022-10-16T04:43:02;1.45;;;0.60;;
20144;SDS011;10233;50.814;6.590;2022-10-16T04:44:03;0.85;;;0.57;;
20144;SDS011;10233;50.814;6.590;2022-10-16T04:45:04;0.60;;;0.60;;
20144;SDS011;10233;50.814;6.590;2022-10-16T04:46:05;0.98;;;0.70;;
20144;SDS011;10233;50.814;6.590;2022-10-16T04:47:06;0.80;;;0.77;;
20144;SDS011;10233;50.814;6.590;2022-10-16T04:48:06;0.75;;;0.75;;
20144;SDS011;10233;50.814;6.590;2022-10-16T04:49:07;0.70;;;0.70;;
20144;SDS011;10233;50.814;6.590;2022-10-16T04:50:07;0.60;;;0.60;;
20144;SDS011;10233;50.814;6.590;2022-10-16T04:51:08;0.50;;;0.50;;
20144;SDS011;10233;50.814;6.590;2022-10-16T04:52:08;1.43;;;0.60;;
20144;SDS011;10233;50.814;6.590;2022-10-16T04:53:09;0.90;;;0.65;;
20144;SDS011;10233;50.814;6.590;2022-10-16T04:54:10;1.10;;;0.80;;
20144;SDS011;10233;50.814;6.590;2022-10-16T04:55:10;0.93;;;0.80;;
20144;SDS011;10233;50.814;6.590;2022-10-16T04:56:11;1.00;;;0.70;;
20144;SDS011;10233;50.814;6.590;2022-10-16T04:57:11;1.00;;;0.77;;
20144;SDS011;10233;50.814;6.590;2022-10-16T04:58:12;2.00;;;0.70;;
20144;SDS011;10233;50.814;6.590;2022-10-16T04:59:15;5.37;;;0.70;;
20144;SDS011;10233;50.814;6.590;2022-10-16T05:00:16;0.95;;;0.77;;
20144;SDS011;10233;50.814;6.590;2022-10-16T05:01:17;1.90;;;0.70;;
20144;SDS011;10233;50.814;6.590;2022-10-16T05:02:17;1.85;;;0.90;;
20144;SDS011;10233;50.814;6.590;2022-10-16T05:03:17;2.43;;;1.00;;
20144;SDS011;10233;50.814;6.590;2022-10-16T05:04:18;1.70;;;0.67;;
20144;SDS011;10233;50.814;6.590;2022-10-16T05:05:18;0.93;;;0.70;;
20144;SDS011;10233;50.814;6.590;2022-10-16T05:06:19;3.00;;;1.00;;
20144;SDS011;10233;50.814;6.590;2022-10-16T05:07:19;3.22;;;0.70;;
20144;SDS011;10233;50.814;6.590;2022-10-16T05:08:23;0.73;;;0.60;;
20144;SDS011;10233;50.814;6.590;2022-10-16T05:09:23;0.80;;;0.80;;
20144;SDS011;10233;50.814;6.590;2022-10-16T05:10:24;0.70;;;0.70;;
20144;SDS011;10233;50.814;6.590;2022-10-16T05:11:24;3.30;;;0.70;;
20144;SDS011;10233;50.814;6.590;2022-10-16T05:12:25;2.47;;;0.75;;
20144;SDS011;10233;50.814;6.590;2022-10-16T05:13:25;0.80;;;0.80;;
20144;SDS011;10233;50.814;6.590;2022-10-16T05:14:26;1.13;;;0.70;;
20144;SDS011;10233;50.814;6.590;2022-10-16T05:15:26;2.60;;;0.83;;
20144;SDS011;10233;50.814;6.590;2022-10-16T05:16:27;1.00;;;0.70;;
20144;SDS011;10233;50.814;6.590;2022-10-16T05:17:27;0.80;;;0.80;;
20144;SDS011;10233;50.814;6.590;2022-10-16T05:18:28;0.73;;;0.70;;
20144;SDS011;10233;50.814;6.590;2022-10-16T05:19:28;3.47;;;0.70;;
20144;SDS011;10233;50.814;6.590;2022-10-16T05:20:29;1.03;;;0.80;;
20144;SDS011;10233;50.814;6.590;2022-10-16T05:21:29;1.37;;;0.73;;
20144;SDS011;10233;50.814;6.590;2022-10-16T05:22:30;2.35;;;0.75;;
20144;SDS011;10233;50.814;6.590;2022-10-16T05:23:30;3.30;;;0.90;;
20144;SDS011;10233;50.814;6.590;2022-10-16T05:24:31;1.95;;;0.70;;
20144;SDS011;10233;50.814;6.590;2022-10-16T05:25:31;1.07;;;0.77;;
20144;SDS011;10233;50.814;6.590;2022-10-16T05:26:31;1.27;;;0.77;;
20144;SDS011;10233;50.814;6.590;2022-10-16T05:27:32;2.07;;;0.70;;
20144;SDS011;10233;50.814;6.590;2022-10-16T05:28:32;0.73;;;0.73;;
20144;SDS011;10233;50.814;6.590;2022-10-16T05:29:33;1.30;;;0.60;;
20144;SDS011;10233;50.814;6.590;2022-10-16T05:30:33;1.50;;;0.60;;
20144;SDS011;10233;50.814;6.590;2022-10-16T05:31:34;1.55;;;0.68;;
20144;SDS011;10233;50.814;6.590;2022-10-16T05:32:34;1.90;;;0.87;;
20144;SDS011;10233;50.814;6.590;2022-10-16T05:33:35;1.20;;;0.63;;
20144;SDS011;10233;50.814;6.590;2022-10-16T05:34:35;3.17;;;0.90;;
20144;SDS011;10233;50.814;6.590;2022-10-16T05:35:36;2.30;;;0.70;;
20144;SDS011;10233;50.814;6.590;2022-10-16T05:36:36;2.00;;;0.90;;
20144;SDS011;10233;50.814;6.590;2022-10-16T05:37:40;1.52;;;0.73;;
20144;SDS011;10233;50.814;6.590;2022-10-16T05:38:40;2.20;;;0.80;;
20144;SDS011;10233;50.814;6.590;2022-10-16T05:39:41;0.80;;;0.70;;
20144;SDS011;10233;50.814;6.590;2022-10-16T05:40:42;2.70;;;1.05;;
20144;SDS011;10233;50.814;6.590;2022-10-16T05:41:43;1.65;;;0.80;;
20144;SDS011;10233;50.814;6.590;2022-10-16T05:42:43;1.77;;;0.77;;
20144;SDS011;10233;50.814;6.590;2022-10-16T05:43:44;1.10;;;0.90;;
20144;SDS011;10233;50.814;6.590;2022-10-16T05:44:44;0.80;;;0.80;;
20144;SDS011;10233;50.814;6.590;2022-10-16T05:45:52;0.80;;;0.80;;
20144;SDS011;10233;50.814;6.590;2022-10-16T05:46:55;0.85;;;0.75;;
20144;SDS011;10233;50.814;6.590;2022-10-16T05:47:56;1.20;;;1.10;;
20144;SDS011;10233;50.814;6.590;2022-10-16T05:48:56;0.80;;;0.60;;
20144;SDS011;10233;50.814;6.590;2022-10-16T05:49:57;1.75;;;0.73;;
20144;SDS011;10233;50.814;6.590;2022-10-16T05:51:05;1.10;;;0.70;;
20144;SDS011;10233;50.814;6.590;2022-10-16T05:52:07;0.80;;;0.60;;
20144;SDS011;10233;50.814;6.590;2022-10-16T05:53:08;1.27;;;0.80;;
20144;SDS011;10233;50.814;6.590;2022-10-16T05:54:08;3.72;;;0.80;;
20144;SDS011;10233;50.814;6.590;2022-10-16T05:55:09;0.60;;;0.60;;
20144;SDS011;10233;50.814;6.590;2022-10-16T05:56:10;3.10;;;0.80;;
20144;SDS011;10233;50.814;6.590;2022-10-16T05:57:12;0.98;;;0.77;;
20144;SDS011;10233;50.814;6.590;2022-10-16T05:58:12;0.77;;;0.60;;
20144;SDS011;10233;50.814;6.590;2022-10-16T05:59:13;0.80;;;0.80;;
20144;SDS011;10233;50.814;6.590;2022-10-16T06:00:13;1.50;;;0.70;;
20144;SDS011;10233;50.814;6.590;2022-10-16T06:01:15;0.70;;;0.63;;
20144;SDS011;10233;50.814;6.590;2022-10-16T06:02:17;0.85;;;0.65;;
20144;SDS011;10233;50.814;6.590;2022-10-16T06:03:18;1.00;;;0.90;;
20144;SDS011;10233;50.814;6.590;2022-10-16T06:04:18;1.77;;;0.70;;
20144;SDS011;10233;50.814;6.590;2022-10-16T06:05:19;1.35;;;1.05;;
20144;SDS011;10233;50.814;6.590;2022-10-16T06:06:20;1.87;;;1.00;;
20144;SDS011;10233;50.814;6.590;2022-10-16T06:07:22;0.70;;;0.70;;
20144;SDS011;10233;50.814;6.590;2022-10-16T06:08:23;1.30;;;0.70;;
20144;SDS011;10233;50.814;6.590;2022-10-16T06:09:24;0.83;;;0.80;;
20144;SDS011;10233;50.814;6.590;2022-10-16T06:10:24;0.70;;;0.70;;
20144;SDS011;10233;50.814;6.590;2022-10-16T06:11:26;2.73;;;0.90;;
20144;SDS011;10233;50.814;6.590;2022-10-16T06:12:28;3.90;;;1.10;;
20144;SDS011;10233;50.814;6.590;2022-10-16T06:13:29;1.40;;;0.80;;
20144;SDS011;10233;50.814;6.590;2022-10-16T06:14:29;1.33;;;0.90;;
20144;SDS011;10233;50.814;6.590;2022-10-16T06:15:30;2.53;;;1.00;;
20144;SDS011;10233;50.814;6.590;2022-10-16T06:16:30;1.40;;;0.90;;
20144;SDS011;10233;50.814;6.590;2022-10-16T06:17:31;3.23;;;1.00;;
20144;SDS011;10233;50.814;6.590;2022-10-16T06:18:31;1.50;;;0.70;;
20144;SDS011;10233;50.814;6.590;2022-10-16T06:19:32;0.90;;;0.80;;
20144;SDS011;10233;50.814;6.590;2022-10-16T06:20:32;0.90;;;0.73;;
20144;SDS011;10233;50.814;6.590;2022-10-16T06:21:33;0.80;;;0.80;;
20144;SDS011;10233;50.814;6.590;2022-10-16T06:22:33;1.88;;;0.77;;
20144;SDS011;10233;50.814;6.590;2022-10-16T06:23:34;2.80;;;1.37;;
20144;SDS011;10233;50.814;6.590;2022-10-16T06:24:34;1.42;;;1.30;;
20144;SDS011;10233;50.814;6.590;2022-10-16T06:25:34;1.40;;;1.20;;
20144;SDS011;10233;50.814;6.590;2022-10-16T06:26:35;2.20;;;1.07;;
20144;SDS011;10233;50.814;6.590;2022-10-16T06:27:35;1.88;;;1.10;;
20144;SDS011;10233;50.814;6.590;2022-10-16T06:28:36;1.17;;;0.93;;